Time;durP1;ratioP1;P1;durP2;ratioP2;P2;SDS_P1;SDS_P2;PMS_P1;PMS_P2;Temp;Humidity;BMP_temperature;BMP_pressure;BME280_temperature;BME280_humidity;BME280_pressure;Samples;Min_cycle;Max_cycle;Signal;HPM_P1;HPM_P2
2023/08/29 00:00:05;;;;;;;551.20;504.93;;;;;;;26.70;49.24;98771.84;308523;31;3263;-72
2023/08/29 00:00:17;;;;;;;551.38;505.20;;;;;;;26.71;49.16;98770.84;306979;31;3310;-71
2023/08/29 00:00:27;;;;;;;547.28;501.35;;;;;;;26.71;49.08;98768.16;304596;31;4317;-71
2023/08/29 00:00:38;;;;;;;553.23;507.17;;;;;;;26.64;49.47;98766.38;307294;32;1290;-71
2023/08/29 00:00:49;;;;;;;545.50;499.48;;;;;;;26.57;49.66;98762.78;302444;32;5181;-71
2023/08/29 00:00:59;;;;;;;551.30;505.10;;;;;;;26.56;49.32;98764.63;301067;32;5823;-71
2023/08/29 00:01:10;;;;;;;552.67;506.42;;;;;;;26.55;49.66;98762.97;303256;32;1170;-71
2023/08/29 00:01:20;;;;;;;568.00;521.35;;;;;;;26.56;49.22;98764.63;302933;32;5747;-71
2023/08/29 00:01:31;;;;;;;568.60;522.07;;;;;;;26.52;49.67;98768.69;301088;32;5948;-71
2023/08/29 00:01:44;;;;;;;569.80;523.25;;;;;;;26.49;49.70;98763.69;298030;32;6687;-71
2023/08/29 00:01:54;;;;;;;557.95;511.45;;;;;;;26.49;49.40;98771.75;300416;32;1112;-71
2023/08/29 00:02:05;;;;;;;556.07;509.43;;;;;;;26.50;49.41;98765.38;298881;32;6514;-71
2023/08/29 00:02:15;;;;;;;555.80;509.13;;;;;;;26.48;49.22;98768.25;300099;32;4643;-71
2023/08/29 00:02:31;;;;;;;554.13;507.33;;;;;;;26.47;49.40;98765.75;301027;32;739;-71
2023/08/29 00:02:41;;;;;;;550.33;503.40;;;;;;;26.47;49.51;98760.38;295639;33;7159;-71
2023/08/29 00:02:53;;;;;;;554.07;507.33;;;;;;;26.47;49.62;98765.75;296304;33;1138;-71
2023/08/29 00:03:03;;;;;;;555.15;508.58;;;;;;;26.41;49.33;98767.34;295330;33;7369;-71
2023/08/29 00:03:14;;;;;;;556.15;509.67;;;;;;;26.41;49.60;98763.81;290771;33;7337;-71
2023/08/29 00:03:28;;;;;;;556.60;510.10;;;;;;;26.43;49.52;98764.44;289076;34;1410;-71
2023/08/29 00:03:38;;;;;;;557.55;511.23;;;;;;;26.45;49.60;98767.78;290436;34;1582;-71
2023/08/29 00:03:49;;;;;;;557.20;510.87;;;;;;;26.47;49.38;98765.75;286461;34;9075;-71
2023/08/29 00:03:59;;;;;;;552.78;506.52;;;;;;;26.48;49.29;98768.25;285758;34;9301;-71
2023/08/29 00:04:10;;;;;;;552.67;506.30;;;;;;;26.50;49.54;98765.38;290067;34;919;-71
2023/08/29 00:05:49;;;;;;;508.86;463.76;;;;;;;26.61;49.48;98764.91;2499765;27;20284;-71
2023/08/29 00:06:03;;;;;;;551.53;505.30;;;;;;;26.62;49.37;98773.78;350350;28;1231;-71
2023/08/29 00:06:13;;;;;;;552.30;506.05;;;;;;;26.58;49.42;98767.97;349204;28;1244;-71
2023/08/29 00:06:24;;;;;;;549.58;503.42;;;;;;;26.60;49.18;98768.63;347072;28;1229;-71
2023/08/29 00:06:34;;;;;;;540.90;494.90;;;;;;;26.60;49.30;98765.94;345747;28;1285;-71
2023/08/29 00:06:44;;;;;;;540.13;494.10;;;;;;;26.60;49.49;98768.63;346023;28;923;-71
2023/08/29 00:06:55;;;;;;;540.23;494.23;;;;;;;26.60;49.45;98765.94;348092;28;1110;-71
2023/08/29 00:07:05;;;;;;;550.27;504.03;;;;;;;26.62;49.54;98769.25;347114;28;1301;-71
2023/08/29 00:07:16;;;;;;;560.22;513.70;;;;;;;26.63;49.33;98765.56;348609;28;814;-71
2023/08/29 00:07:26;;;;;;;562.13;515.57;;;;;;;26.63;49.09;98773.59;347721;28;1341;-71
2023/08/29 00:07:37;;;;;;;556.70;510.25;;;;;;;26.62;49.65;98768.44;344536;28;1187;-71
2023/08/29 00:07:47;;;;;;;558.30;511.93;;;;;;;26.62;49.34;98763.88;348586;28;1378;-71
2023/08/29 00:07:57;;;;;;;561.05;514.55;;;;;;;26.61;49.36;98772.97;349181;28;1243;-71
2023/08/29 00:08:08;;;;;;;561.20;514.70;;;;;;;26.61;49.69;98772.97;351939;28;1065;-71
2023/08/29 00:08:18;;;;;;;549.10;502.80;;;;;;;26.61;49.23;98772.97;345862;28;1281;-71
2023/08/29 00:08:29;;;;;;;548.47;502.30;;;;;;;26.63;49.16;98770.94;346720;28;2319;-71
2023/08/29 00:08:39;;;;;;;550.22;504.13;;;;;;;26.64;49.48;98772.59;346072;28;5984;-71
2023/08/29 00:08:50;;;;;;;556.20;509.90;;;;;;;26.65;49.56;98776.09;348334;28;3451;-71
2023/08/29 00:09:00;;;;;;;554.73;508.23;;;;;;;26.66;49.23;98778.59;348460;28;1211;-71
2023/08/29 00:09:10;;;;;;;553.90;507.23;;;;;;;26.66;49.18;98773.25;345446;28;3705;-71
2023/08/29 00:09:21;;;;;;;554.53;507.83;;;;;;;26.67;49.15;98774.91;344497;28;1213;-71
2023/08/29 00:09:32;;;;;;;553.72;507.40;;;;;;;26.69;49.62;98774.72;346900;28;959;-71
2023/08/29 00:09:42;;;;;;;552.50;506.27;;;;;;;26.70;49.71;98779.91;346255;28;1262;-71
2023/08/29 00:09:53;;;;;;;558.10;511.60;;;;;;;26.71;49.74;98786.09;347224;28;1316;-71
2023/08/29 00:10:03;;;;;;;558.90;512.30;;;;;;;26.71;49.24;98778.88;347027;28;1439;-71
2023/08/29 00:10:14;;;;;;;558.23;511.57;;;;;;;26.72;49.12;98775.19;343644;28;1085;-71
2023/08/29 00:10:24;;;;;;;553.47;507.08;;;;;;;26.72;49.28;98780.56;342779;28;1452;-71
2023/08/29 00:10:35;;;;;;;555.17;508.80;;;;;;;26.72;49.68;98772.50;346036;28;1351;-71
2023/08/29 00:10:45;;;;;;;564.72;518.17;;;;;;;26.74;49.28;98775.84;348977;28;784;-71
2023/08/29 00:10:56;;;;;;;561.10;514.70;;;;;;;26.73;49.10;98776.84;348564;28;848;-71
2023/08/29 00:11:06;;;;;;;558.33;511.92;;;;;;;26.74;49.52;98778.53;346085;28;860;-71
2023/08/29 00:11:17;;;;;;;551.08;504.85;;;;;;;26.75;49.19;98780.19;345515;28;1440;-71
2023/08/29 00:11:27;;;;;;;557.00;510.63;;;;;;;26.76;49.35;98776.47;343697;28;1692;-71
2023/08/29 00:11:38;;;;;;;547.97;501.80;;;;;;;26.77;49.39;98783.50;340435;28;1194;-71
2023/08/29 00:11:48;;;;;;;550.25;504.08;;;;;;;26.77;49.32;98777.31;339520;29;1202;-71
2023/08/29 00:11:59;;;;;;;549.73;503.67;;;;;;;26.77;49.38;98775.47;342296;28;1159;-71
2023/08/29 00:12:09;;;;;;;560.83;514.53;;;;;;;26.77;49.32;98778.16;341784;28;1227;-71
2023/08/29 00:12:20;;;;;;;565.30;518.93;;;;;;;26.77;49.14;98775.47;341874;28;1394;-71
2023/08/29 00:12:32;;;;;;;557.38;511.10;;;;;;;26.78;49.35;98778.97;342862;28;1317;-71
2023/08/29 00:12:42;;;;;;;564.22;517.72;;;;;;;26.75;49.18;98774.81;343272;28;909;-72
2023/08/29 00:12:52;;;;;;;563.07;516.63;;;;;;;26.75;49.35;98774.81;341850;28;1213;-71
2023/08/29 00:13:03;;;;;;;558.35;512.03;;;;;;;26.76;49.44;98779.16;343034;28;1454;-71
2023/08/29 00:13:13;;;;;;;554.60;508.10;;;;;;;26.76;49.38;98781.84;340488;29;852;-71
2023/08/29 00:13:24;;;;;;;553.25;506.70;;;;;;;26.76;49.28;98779.16;335736;29;1361;-71
2023/08/29 00:13:34;;;;;;;555.20;508.57;;;;;;;26.76;49.03;98772.97;332844;29;1295;-71
2023/08/29 00:13:45;;;;;;;555.65;509.35;;;;;;;26.77;49.32;98777.31;335676;29;1243;-71
2023/08/29 00:13:56;;;;;;;560.67;514.30;;;;;;;26.74;49.37;98778.53;336934;29;1552;-71
2023/08/29 00:14:06;;;;;;;562.00;515.65;;;;;;;26.74;49.43;98778.53;339220;29;1100;-71
2023/08/29 00:14:16;;;;;;;551.87;505.67;;;;;;;26.73;49.55;98771.47;340251;29;1233;-71
2023/08/29 00:14:27;;;;;;;549.53;503.38;;;;;;;26.72;49.53;98775.19;338250;29;1606;-71
2023/08/29 00:14:37;;;;;;;552.60;506.30;;;;;;;26.72;49.29;98769.81;337899;29;1145;-71
2023/08/29 00:14:48;;;;;;;557.50;511.10;;;;;;;26.72;49.56;98769.81;339363;29;925;-71
2023/08/29 00:14:59;;;;;;;563.37;516.87;;;;;;;26.73;49.66;98770.66;338433;29;1081;-71
2023/08/29 00:15:10;;;;;;;566.50;519.90;;;;;;;26.74;49.45;98777.69;339182;29;1286;-71
2023/08/29 00:15:20;;;;;;;573.80;527.05;;;;;;;26.72;49.33;98775.19;337796;29;1287;-71
2023/08/29 00:15:32;;;;;;;578.28;531.45;;;;;;;26.73;49.60;98773.34;334176;29;1530;-71
2023/08/29 00:15:43;;;;;;;573.03;526.33;;;;;;;26.73;49.67;98776.03;331209;29;1696;-71
2023/08/29 00:15:53;;;;;;;560.10;513.67;;;;;;;26.73;49.55;98776.03;329916;29;1721;-71
2023/08/29 00:16:03;;;;;;;554.88;508.65;;;;;;;26.72;49.64;98769.81;329802;30;996;-71
2023/08/29 00:16:16;;;;;;;553.47;507.27;;;;;;;26.71;49.74;98773.53;330250;29;2007;-72
2023/08/29 00:16:26;;;;;;;551.85;505.67;;;;;;;26.72;49.32;98777.03;331322;29;2164;-71
2023/08/29 00:16:37;;;;;;;554.03;507.73;;;;;;;26.73;49.95;98778.69;332377;29;1319;-71
2023/08/29 00:16:47;;;;;;;555.23;508.83;;;;;;;26.72;49.46;98779.72;329833;29;1877;-71
2023/08/29 00:16:57;;;;;;;563.63;517.05;;;;;;;26.70;49.64;98773.69;331213;29;1672;-71
2023/08/29 00:17:08;;;;;;;565.37;518.67;;;;;;;26.69;49.74;98778.25;330769;29;1599;-71
2023/08/29 00:17:18;;;;;;;569.37;522.63;;;;;;;26.69;49.71;98774.72;330103;29;2423;-71
2023/08/29 00:17:29;;;;;;;566.10;519.35;;;;;;;26.69;49.63;98780.94;330118;29;1588;-71
2023/08/29 00:17:39;;;;;;;560.50;513.87;;;;;;;26.69;49.58;98780.94;327829;29;2038;-71
2023/08/29 00:17:49;;;;;;;557.25;510.83;;;;;;;26.67;49.90;98777.59;323742;30;7871;-71
2023/08/29 00:18:00;;;;;;;559.70;513.27;;;;;;;26.67;49.59;98779.44;322483;30;5824;-71
2023/08/29 00:18:10;;;;;;;569.17;522.63;;;;;;;26.64;50.05;98777.13;322848;30;6329;-71
2023/08/29 00:18:21;;;;;;;563.25;516.70;;;;;;;26.63;49.83;98778.97;321793;30;3271;-71
2023/08/29 00:18:31;;;;;;;547.53;501.30;;;;;;;26.64;49.70;98786.00;327569;30;2315;-71
2023/08/29 00:18:42;;;;;;;538.95;492.77;;;;;;;26.65;49.59;98779.63;329203;29;2193;-71
2023/08/29 00:18:53;;;;;;;541.53;495.42;;;;;;;26.65;49.75;98782.31;327766;29;2467;-71
2023/08/29 00:19:03;;;;;;;554.15;507.65;;;;;;;26.65;49.90;98779.63;326889;30;1188;-71
2023/08/29 00:19:14;;;;;;;557.40;511.07;;;;;;;26.66;49.55;98781.28;323936;30;1665;-71
2023/08/29 00:19:25;;;;;;;557.55;511.33;;;;;;;26.66;49.88;98783.97;325570;30;1807;-71
2023/08/29 00:19:35;;;;;;;550.88;504.77;;;;;;;26.66;49.67;98786.66;324562;30;1274;-71
2023/08/29 00:19:46;;;;;;;554.27;507.93;;;;;;;26.66;49.65;98781.28;325036;30;2013;-71
2023/08/29 00:19:56;;;;;;;550.30;504.02;;;;;;;26.65;50.15;98785.00;322492;30;2969;-71
2023/08/29 00:20:07;;;;;;;553.57;507.17;;;;;;;26.65;49.89;98784.16;319543;30;1217;-71
2023/08/29 00:20:17;;;;;;;551.65;505.27;;;;;;;26.65;49.43;98790.38;323433;30;3174;-71
2023/08/29 00:20:28;;;;;;;561.33;514.67;;;;;;;26.65;49.81;98778.78;320097;30;3254;-71
2023/08/29 00:20:38;;;;;;;554.38;508.02;;;;;;;26.64;49.69;98788.69;317770;30;3317;-71
2023/08/29 00:20:48;;;;;;;556.10;509.70;;;;;;;26.63;49.76;98787.03;319741;30;1405;-71
2023/08/29 00:20:59;;;;;;;550.27;504.00;;;;;;;26.63;50.02;98787.03;318649;30;2652;-71
2023/08/29 00:21:09;;;;;;;553.25;506.92;;;;;;;26.64;49.82;98782.50;318859;30;2754;-71
2023/08/29 00:21:20;;;;;;;549.63;503.33;;;;;;;26.65;49.68;98787.69;317883;31;1214;-71
2023/08/29 00:21:30;;;;;;;549.90;503.63;;;;;;;26.65;49.90;98785.00;316908;31;1975;-71
2023/08/29 00:21:41;;;;;;;549.73;503.53;;;;;;;26.67;49.79;98790.19;314729;31;2419;-71
2023/08/29 00:21:52;;;;;;;556.72;510.48;;;;;;;26.65;49.82;98790.38;317205;31;1324;-71
2023/08/29 00:22:02;;;;;;;560.03;513.58;;;;;;;26.67;49.31;98790.19;312082;31;2764;-71
2023/08/29 00:22:13;;;;;;;568.70;521.90;;;;;;;26.67;49.54;98793.69;313202;31;4080;-71
2023/08/29 00:22:23;;;;;;;566.22;519.40;;;;;;;26.68;49.60;98792.69;312939;31;4673;-71
2023/08/29 00:22:34;;;;;;;560.03;513.40;;;;;;;26.63;49.91;98797.78;307200;32;999;-71
2023/08/29 00:22:44;;;;;;;554.00;507.60;;;;;;;26.57;49.24;98793.13;308066;31;4704;-71
2023/08/29 00:22:55;;;;;;;556.37;509.93;;;;;;;26.53;49.52;98789.16;310376;31;4550;-71
2023/08/29 00:23:09;;;;;;;562.55;516.15;;;;;;;26.49;49.38;98788.69;311668;31;918;-71
2023/08/29 00:23:19;;;;;;;557.05;510.83;;;;;;;26.43;49.21;98788.59;307204;32;918;-71
2023/08/29 00:23:29;;;;;;;554.63;508.40;;;;;;;26.40;49.37;98797.88;306938;32;3853;-71
2023/08/29 00:23:40;;;;;;;550.70;504.50;;;;;;;26.39;49.37;98790.00;302916;32;2599;-71
2023/08/29 00:23:50;;;;;;;553.30;507.00;;;;;;;26.37;49.22;98792.88;300107;32;893;-71
2023/08/29 00:24:00;;;;;;;552.97;506.67;;;;;;;26.34;49.56;98787.88;304009;32;3525;-71
2023/08/29 00:24:11;;;;;;;555.80;509.42;;;;;;;26.31;49.46;98793.59;301974;32;4164;-71
2023/08/29 00:24:21;;;;;;;552.07;505.63;;;;;;;26.26;49.63;98789.75;302029;32;935;-71
2023/08/29 00:24:32;;;;;;;543.33;497.02;;;;;;;26.24;50.01;98791.78;300787;32;5846;-71
2023/08/29 00:24:45;;;;;;;546.43;500.03;;;;;;;26.25;49.49;98793.47;302029;32;6701;-71
2023/08/29 00:24:56;;;;;;;544.22;498.02;;;;;;;26.26;49.73;98792.44;302852;32;6488;-71
2023/08/29 00:25:07;;;;;;;542.45;496.13;;;;;;;26.28;49.80;98787.72;302895;32;824;-71
2023/08/29 00:25:17;;;;;;;546.20;499.60;;;;;;;26.27;49.68;98796.78;297856;32;6766;-71
2023/08/29 00:25:28;;;;;;;543.58;497.10;;;;;;;26.28;49.67;98788.56;300872;32;5476;-71
2023/08/29 00:25:38;;;;;;;549.27;502.80;;;;;;;26.30;49.50;98791.06;302716;32;5469;-71
2023/08/29 00:25:50;;;;;;;549.10;502.90;;;;;;;26.34;49.43;98795.09;302964;32;1229;-71
2023/08/29 00:26:00;;;;;;;548.47;502.13;;;;;;;26.34;49.43;98792.41;298882;32;3992;-71
2023/08/29 00:26:11;;;;;;;540.05;493.75;;;;;;;26.35;49.39;98794.06;296312;33;5135;-71
2023/08/29 00:26:21;;;;;;;541.67;495.23;;;;;;;26.36;49.34;98790.38;295882;33;898;-71
2023/08/29 00:26:31;;;;;;;549.53;503.05;;;;;;;26.34;49.65;98798.59;296331;33;6325;-71
2023/08/29 00:26:42;;;;;;;543.17;496.97;;;;;;;26.33;49.62;98793.41;294300;33;7976;-71
2023/08/29 00:26:52;;;;;;;539.17;493.17;;;;;;;26.31;49.06;98790.09;294832;33;1216;-71
2023/08/29 00:27:03;;;;;;;534.30;488.42;;;;;;;26.30;49.40;98791.91;285059;34;9624;-71
2023/08/29 00:27:14;;;;;;;544.33;498.23;;;;;;;26.32;49.74;98789.06;282615;34;9698;-71
2023/08/29 00:27:24;;;;;;;543.53;497.50;;;;;;;26.33;49.41;98791.56;283565;34;9983;-71
2023/08/29 00:27:35;;;;;;;555.60;509.00;;;;;;;26.35;49.51;98791.38;284085;34;6241;-71
2023/08/29 00:27:45;;;;;;;552.00;505.43;;;;;;;26.34;49.15;98787.88;278590;35;8179;-71
2023/08/29 00:29:38;;;;;;;491.45;446.81;;;;;;;25.97;50.14;98791.38;2494003;27;20258;-71
2023/08/29 00:29:48;;;;;;;530.13;484.43;;;;;;;25.90;50.47;98785.06;351387;28;1309;-71
2023/08/29 00:29:59;;;;;;;525.77;480.07;;;;;;;25.87;50.38;98788.13;349948;28;942;-71
2023/08/29 00:30:09;;;;;;;529.35;483.48;;;;;;;25.90;50.35;98787.75;348761;28;832;-71
2023/08/29 00:30:20;;;;;;;537.85;491.80;;;;;;;25.94;50.11;98786.38;348596;28;1220;-71
2023/08/29 00:30:35;;;;;;;542.90;496.83;;;;;;;25.97;50.00;98786.03;348527;28;1298;-71
2023/08/29 00:30:46;;;;;;;537.80;491.65;;;;;;;26.01;50.00;98798.03;348713;28;949;-71
2023/08/29 00:30:56;;;;;;;531.63;485.63;;;;;;;26.00;50.12;98785.63;348626;28;939;-71
2023/08/29 00:31:06;;;;;;;535.00;488.90;;;;;;;25.97;50.33;98786.03;348855;28;1448;-71
2023/08/29 00:31:17;;;;;;;535.95;489.77;;;;;;;25.99;50.06;98785.84;347888;28;1358;-71
2023/08/29 00:31:27;;;;;;;536.37;490.20;;;;;;;26.01;50.30;98792.66;348693;28;1541;-71
2023/08/29 00:31:38;;;;;;;533.00;486.93;;;;;;;26.02;50.12;98790.81;347294;28;1404;-71
2023/08/29 00:31:48;;;;;;;527.08;481.35;;;;;;;26.04;50.08;98786.94;349376;28;1238;-71
2023/08/29 00:31:58;;;;;;;525.00;479.30;;;;;;;26.07;49.78;98785.75;348355;28;1335;-71
2023/08/29 00:32:10;;;;;;;522.67;476.95;;;;;;;26.10;49.72;98796.13;348650;28;1374;-71
2023/08/29 00:32:20;;;;;;;522.90;477.17;;;;;;;26.13;49.98;98791.22;348486;28;1097;-71
2023/08/29 00:32:30;;;;;;;524.17;478.40;;;;;;;26.14;49.90;98787.53;347249;28;1193;-71
2023/08/29 00:32:41;;;;;;;525.03;479.27;;;;;;;26.11;49.67;98785.19;348809;28;1634;-71
2023/08/29 00:32:51;;;;;;;526.77;480.73;;;;;;;26.09;50.00;98794.44;349989;28;1358;-71
2023/08/29 00:33:02;;;;;;;533.15;487.08;;;;;;;26.05;49.92;98783.25;347096;28;859;-71
2023/08/29 00:33:12;;;;;;;538.63;492.37;;;;;;;26.06;50.08;98790.28;347239;28;1359;-71
2023/08/29 00:33:23;;;;;;;540.67;494.50;;;;;;;26.07;49.89;98791.94;348649;28;1251;-71
2023/08/29 00:33:33;;;;;;;535.30;489.07;;;;;;;26.07;49.84;98791.94;346989;28;1082;-71
2023/08/29 00:33:43;;;;;;;527.35;481.52;;;;;;;26.10;49.68;98793.44;347480;28;1231;-71
2023/08/29 00:33:54;;;;;;;517.70;472.13;;;;;;;26.11;49.97;98782.50;348033;28;1212;-71
2023/08/29 00:34:05;;;;;;;517.95;472.48;;;;;;;26.13;49.48;98791.22;347272;28;1122;-71
2023/08/29 00:34:15;;;;;;;527.10;481.33;;;;;;;26.14;49.56;98787.53;345832;28;1312;-71
2023/08/29 00:34:25;;;;;;;534.42;488.58;;;;;;;26.16;49.75;98793.53;348507;28;1556;-70
2023/08/29 00:34:36;;;;;;;541.53;495.43;;;;;;;26.16;49.50;98795.38;346050;28;898;-70
2023/08/29 00:34:46;;;;;;;542.00;495.90;;;;;;;26.16;49.90;98785.50;344744;28;892;-70
2023/08/29 00:34:57;;;;;;;534.63;488.63;;;;;;;26.14;49.68;98787.53;345744;28;1311;-70
2023/08/29 00:35:07;;;;;;;526.93;481.23;;;;;;;26.13;50.15;98785.84;345971;28;876;-70
2023/08/29 00:35:18;;;;;;;521.63;475.90;;;;;;;26.15;50.01;98789.19;348557;28;860;-70
2023/08/29 00:35:28;;;;;;;525.53;479.83;;;;;;;26.17;49.90;98789.84;344956;28;1188;-70
2023/08/29 00:35:39;;;;;;;529.13;483.30;;;;;;;26.20;49.77;98791.31;346431;28;1429;-70
2023/08/29 00:35:49;;;;;;;531.13;485.30;;;;;;;26.23;49.93;98790.13;345788;28;1420;-70
2023/08/29 00:35:59;;;;;;;533.67;487.65;;;;;;;26.22;49.66;98788.47;345755;28;1130;-70
2023/08/29 00:36:10;;;;;;;528.63;482.77;;;;;;;26.20;49.30;98785.97;340298;28;2373;-70
2023/08/29 00:36:20;;;;;;;527.47;481.63;;;;;;;26.22;49.46;98793.81;339032;28;5119;-70
2023/08/29 00:36:31;;;;;;;529.60;483.67;;;;;;;26.23;49.48;98784.75;339350;29;6065;-70
2023/08/29 00:36:41;;;;;;;528.65;482.67;;;;;;;26.23;49.65;98795.50;339080;29;3675;-70
2023/08/29 00:36:51;;;;;;;526.07;480.17;;;;;;;26.24;49.35;98786.44;340329;29;3488;-70
2023/08/29 00:37:02;;;;;;;520.23;474.53;;;;;;;26.23;49.60;98784.75;337916;29;2038;-70
2023/08/29 00:37:12;;;;;;;524.03;478.40;;;;;;;26.23;49.50;98784.75;340353;29;946;-70
2023/08/29 00:37:23;;;;;;;530.60;485.00;;;;;;;26.23;49.73;98784.75;335485;29;1454;-70
2023/08/29 00:37:33;;;;;;;534.78;489.08;;;;;;;26.22;49.70;98789.28;337325;29;1275;-70
2023/08/29 00:37:43;;;;;;;530.90;485.20;;;;;;;26.22;49.38;98791.16;337713;29;1420;-70
2023/08/29 00:37:54;;;;;;;525.00;479.40;;;;;;;26.23;49.74;98779.41;336631;29;1357;-70
2023/08/29 00:38:04;;;;;;;520.20;474.67;;;;;;;26.25;49.28;98788.09;338632;29;1259;-70
2023/08/29 00:38:15;;;;;;;519.97;474.37;;;;;;;26.24;49.83;98783.75;338494;29;1553;-70
2023/08/29 00:38:25;;;;;;;515.97;470.50;;;;;;;26.23;49.51;98779.41;337801;29;1428;-70
2023/08/29 00:38:35;;;;;;;514.77;469.33;;;;;;;26.21;49.71;98786.78;335420;29;1316;-70
2023/08/29 00:38:46;;;;;;;525.08;479.48;;;;;;;26.21;49.64;98786.78;335945;29;946;-70
2023/08/29 00:38:56;;;;;;;536.23;490.40;;;;;;;26.22;49.70;98783.94;334142;29;890;-70
2023/08/29 00:39:07;;;;;;;541.07;495.17;;;;;;;26.22;49.38;98789.28;332831;29;1218;-70
2023/08/29 00:39:17;;;;;;;536.53;490.65;;;;;;;26.25;49.58;98788.09;331387;29;1076;-70
2023/08/29 00:39:27;;;;;;;529.87;484.07;;;;;;;26.23;49.33;98784.75;330188;29;1479;-70
2023/08/29 00:39:38;;;;;;;532.22;486.33;;;;;;;26.19;49.36;98785.13;334183;29;963;-70
2023/08/29 00:39:48;;;;;;;523.00;477.43;;;;;;;26.20;49.38;98785.97;333715;29;1788;-70
2023/08/29 00:39:59;;;;;;;529.33;483.63;;;;;;;26.19;49.71;98785.13;331267;29;1869;-70
2023/08/29 00:40:10;;;;;;;521.75;476.23;;;;;;;26.18;49.77;98786.13;329071;30;1366;-70
2023/08/29 00:40:21;;;;;;;522.33;476.75;;;;;;;26.19;49.63;98790.50;326417;30;2117;-70
2023/08/29 00:40:32;;;;;;;521.00;475.48;;;;;;;26.21;49.73;98789.47;327474;30;2133;-70
2023/08/29 00:40:42;;;;;;;521.97;476.40;;;;;;;26.21;49.44;98792.16;324953;29;1821;-70
2023/08/29 00:40:53;;;;;;;527.30;481.67;;;;;;;26.17;49.58;98789.00;329224;30;863;-71
2023/08/29 00:41:03;;;;;;;526.50;480.88;;;;;;;26.16;49.42;98787.34;328889;30;836;-71
2023/08/29 00:41:14;;;;;;;538.05;492.05;;;;;;;26.17;49.49;98789.84;330833;29;1638;-71
2023/08/29 00:41:24;;;;;;;535.13;489.27;;;;;;;26.18;49.45;98790.66;330477;29;811;-71
2023/08/29 00:41:35;;;;;;;533.78;487.92;;;;;;;26.19;49.65;98789.66;325538;30;1828;-71
2023/08/29 00:41:48;;;;;;;536.03;490.27;;;;;;;26.21;49.52;98792.16;322848;30;2300;-71
2023/08/29 00:41:59;;;;;;;544.75;498.70;;;;;;;26.23;49.45;98790.97;324099;30;2348;-71
2023/08/29 00:42:10;;;;;;;549.25;503.00;;;;;;;26.24;49.18;98789.13;328402;30;1453;-71
2023/08/29 00:42:20;;;;;;;547.47;501.27;;;;;;;26.24;49.17;98800.69;326509;30;2524;-70
2023/08/29 00:42:30;;;;;;;544.90;498.70;;;;;;;26.24;49.68;98791.78;327946;29;2569;-70
2023/08/29 00:42:41;;;;;;;535.25;489.25;;;;;;;26.26;49.55;98789.75;325438;30;828;-70
2023/08/29 00:42:51;;;;;;;533.40;487.50;;;;;;;26.27;49.52;98794.13;327304;30;2667;-70
2023/08/29 00:43:02;;;;;;;528.92;483.25;;;;;;;26.28;49.28;98788.56;324494;30;1829;-70
2023/08/29 00:43:13;;;;;;;534.47;488.65;;;;;;;26.28;49.46;98793.94;323524;30;1430;-70
2023/08/29 00:43:23;;;;;;;529.40;483.47;;;;;;;26.30;49.22;98785.69;321956;30;716;-70
2023/08/29 00:43:33;;;;;;;524.80;478.92;;;;;;;26.29;49.12;98795.59;318136;30;2289;-70
2023/08/29 00:43:44;;;;;;;525.83;480.03;;;;;;;26.30;49.12;98791.06;315342;31;2395;-70
2023/08/29 00:43:54;;;;;;;532.10;486.27;;;;;;;26.31;49.37;98793.59;313644;31;1336;-70
2023/08/29 00:44:05;;;;;;;537.20;491.25;;;;;;;26.27;49.07;98794.94;315372;30;2819;-70
2023/08/29 00:44:16;;;;;;;538.93;493.03;;;;;;;26.24;49.24;98791.78;316828;30;3517;-70
2023/08/29 00:44:26;;;;;;;539.85;493.95;;;;;;;26.15;49.30;98794.56;320693;30;940;-70
2023/08/29 00:44:38;;;;;;;537.87;492.00;;;;;;;26.08;49.80;98793.59;317147;30;4460;-70
2023/08/29 00:44:48;;;;;;;540.50;494.55;;;;;;;26.05;49.56;98791.28;315413;31;3496;-71
2023/08/29 00:44:59;;;;;;;532.83;487.03;;;;;;;26.05;49.83;98793.13;316027;31;3084;-71
2023/08/29 00:45:09;;;;;;;530.00;484.30;;;;;;;26.06;49.96;98795.63;314900;31;1513;-71
2023/08/29 00:45:20;;;;;;;533.13;487.27;;;;;;;26.06;49.64;98794.81;314467;31;2524;-71
2023/08/29 00:45:32;;;;;;;535.63;489.75;;;;;;;26.02;49.50;98793.50;312317;31;3591;-71
2023/08/29 00:45:42;;;;;;;537.45;491.55;;;;;;;26.00;49.77;98793.69;310452;31;3283;-71
2023/08/29 00:45:53;;;;;;;541.37;495.37;;;;;;;25.94;49.97;98791.75;313043;31;3711;-71
2023/08/29 00:46:04;;;;;;;543.95;497.67;;;;;;;25.91;50.15;98796.63;311943;31;3459;-71
2023/08/29 00:46:15;;;;;;;543.85;497.27;;;;;;;25.88;50.03;98787.09;311588;31;4539;-71
2023/08/29 00:46:25;;;;;;;537.75;491.30;;;;;;;25.89;50.23;98787.94;312649;31;1768;-71
2023/08/29 00:46:36;;;;;;;537.43;491.03;;;;;;;25.89;50.36;98788.78;305716;31;4818;-71
2023/08/29 00:46:46;;;;;;;534.75;488.63;;;;;;;25.91;49.97;98789.44;309153;31;4709;-71
2023/08/29 00:46:57;;;;;;;530.40;484.37;;;;;;;25.95;50.66;98787.22;314941;31;857;-71
2023/08/29 00:47:07;;;;;;;538.45;492.25;;;;;;;25.97;49.88;98787.88;308246;32;1332;-71
2023/08/29 00:47:17;;;;;;;536.17;490.00;;;;;;;26.00;50.13;98787.47;308321;31;4545;-71
2023/08/29 00:47:28;;;;;;;536.78;490.67;;;;;;;26.03;50.12;98784.44;308800;31;3351;-71
2023/08/29 00:47:39;;;;;;;528.10;482.23;;;;;;;26.06;49.83;98786.75;309886;31;1380;-71
2023/08/29 00:47:50;;;;;;;521.50;475.65;;;;;;;26.05;50.26;98796.66;310532;31;3076;-72
2023/08/29 00:48:00;;;;;;;520.65;474.95;;;;;;;26.05;50.11;98793.97;307299;31;4303;-70
2023/08/29 00:48:11;;;;;;;522.22;476.23;;;;;;;26.05;49.67;98790.47;305021;32;1333;-73
2023/08/29 00:48:21;;;;;;;527.30;481.27;;;;;;;26.06;50.10;98789.44;302991;32;5042;-72
2023/08/29 00:48:32;;;;;;;528.10;481.93;;;;;;;26.07;49.99;98789.25;303718;32;5465;-72
2023/08/29 00:48:42;;;;;;;528.00;482.25;;;;;;;26.05;49.66;98788.59;302888;32;6596;-72
2023/08/29 00:48:54;;;;;;;527.53;481.75;;;;;;;26.03;50.17;98790.63;300485;32;1366;-72
2023/08/29 00:49:04;;;;;;;525.35;479.70;;;;;;;26.02;49.96;98786.28;296986;32;6285;-72
2023/08/29 00:49:16;;;;;;;532.37;486.50;;;;;;;25.98;49.91;98781.50;296516;32;4862;-72
2023/08/29 00:49:27;;;;;;;532.88;486.98;;;;;;;25.95;50.09;98788.06;299854;32;1446;-72
2023/08/29 00:49:37;;;;;;;531.30;485.35;;;;;;;25.96;49.93;98791.56;291834;33;1511;-72
2023/08/29 00:49:47;;;;;;;524.37;478.63;;;;;;;25.93;50.32;98790.09;293915;33;5219;-72
2023/08/29 00:49:58;;;;;;;527.50;481.77;;;;;;;25.90;50.11;98790.44;293890;33;4690;-72
2023/08/29 00:50:08;;;;;;;526.27;480.57;;;;;;;25.89;50.14;98788.78;293291;33;2186;-72
2023/08/29 00:50:19;;;;;;;522.33;476.75;;;;;;;25.90;50.35;98789.59;292330;33;6109;-72
2023/08/29 00:50:32;;;;;;;523.13;477.50;;;;;;;25.91;50.18;98788.59;290706;33;7362;-71
2023/08/29 00:50:43;;;;;;;520.25;474.67;;;;;;;25.92;50.28;98783.06;288539;33;8097;-71
2023/08/29 00:50:54;;;;;;;519.90;474.30;;;;;;;25.94;50.06;98789.06;291483;33;1577;-71
2023/08/29 00:51:04;;;;;;;519.42;473.83;;;;;;;25.96;50.30;98787.03;287413;34;9468;-71
2023/08/29 00:51:16;;;;;;;521.25;475.45;;;;;;;25.97;50.04;98780.66;286343;34;9196;-71
2023/08/29 00:52:50;;;;;;;476.98;432.21;;;;;;;25.84;50.41;98781.25;2498163;27;20479;-70
2023/08/29 00:53:03;;;;;;;519.88;474.27;;;;;;;25.85;50.15;98790.16;351401;28;1245;-70
2023/08/29 00:53:13;;;;;;;522.30;476.70;;;;;;;25.87;50.25;98785.44;348551;28;1378;-70
2023/08/29 00:53:25;;;;;;;526.30;480.63;;;;;;;25.81;50.42;98786.16;347469;28;804;-70
2023/08/29 00:53:35;;;;;;;515.95;470.45;;;;;;;25.73;50.55;98787.03;347348;28;891;-70
2023/08/29 00:53:45;;;;;;;512.90;467.50;;;;;;;25.66;50.73;98790.63;347093;28;1477;-70